createdAt,value
2022-12-16T00:00:09.226Z,69.75
2022-12-16T00:02:58.539Z,70.38
2022-12-16T00:05:48.745Z,67.90
2022-12-16T00:08:39.779Z,70.80
2022-12-16T00:11:27.628Z,60.15
2022-12-16T00:14:14.792Z,71.15
2022-12-16T00:17:01.939Z,65.28
2022-12-16T00:19:49.146Z,87.65
2022-12-16T00:22:36.280Z,66.85
2022-12-16T00:25:23.410Z,66.20
2022-12-16T00:28:11.621Z,65.60
2022-12-16T00:30:59.080Z,76.63
2022-12-16T00:33:46.226Z,60.58
2022-12-16T00:36:33.642Z,69.20
2022-12-16T00:39:20.807Z,69.07
2022-12-16T00:42:07.925Z,67.53
2022-12-16T00:44:55.317Z,69.13
2022-12-16T00:47:44.019Z,66.15
2022-12-16T00:50:31.801Z,57.28
2022-12-16T00:53:19.966Z,74.68
2022-12-16T00:56:09.641Z,65.75
2022-12-16T00:58:56.881Z,61.33
2022-12-16T01:01:44.203Z,74.65
2022-12-16T01:04:31.550Z,68.22
2022-12-16T01:07:18.808Z,72.60
2022-12-16T01:10:07.570Z,68.82
2022-12-16T01:12:55.640Z,70.32
2022-12-16T01:15:42.722Z,67.85
2022-12-16T01:18:29.833Z,66.33
2022-12-16T01:21:16.976Z,70.00
2022-12-16T01:24:04.501Z,71.63
2022-12-16T01:26:51.642Z,86.03
2022-12-16T01:29:39.887Z,79.88
2022-12-16T01:32:27.279Z,63.65
2022-12-16T01:35:50.951Z,67.20
2022-12-16T01:38:21.776Z,63.13
2022-12-16T01:41:10.512Z,77.57
2022-12-16T01:44:20.214Z,62.63
2022-12-16T01:47:07.480Z,69.90
2022-12-16T01:50:04.488Z,65.93
2022-12-16T01:52:56.546Z,78.90
2022-12-16T01:55:50.963Z,79.23
2022-12-16T01:58:40.786Z,57.00
2022-12-16T02:01:28.236Z,56.10
2022-12-16T02:04:15.500Z,60.10
2022-12-16T02:07:02.814Z,69.73
2022-12-16T02:09:50.152Z,56.87
2022-12-16T02:12:54.366Z,63.23
2022-12-16T02:16:04.776Z,75.00
2022-12-16T02:19:16.958Z,60.17
2022-12-16T02:22:09.930Z,66.53
2022-12-16T02:25:09.119Z,53.83
2022-12-16T02:28:11.779Z,57.93
2022-12-16T02:31:37.652Z,55.10
2022-12-16T02:35:08.392Z,62.30
2022-12-16T02:38:33.118Z,65.47
2022-12-16T02:41:52.317Z,61.87
2022-12-16T02:45:07.328Z,64.30
2022-12-16T02:47:54.655Z,65.60
2022-12-16T02:51:00.431Z,58.50
2022-12-16T02:53:50.684Z,58.20
2022-12-16T02:56:46.926Z,54.03
2022-12-16T03:00:07.816Z,58.73
2022-12-16T03:03:19.276Z,55.20
2022-12-16T03:06:08.178Z,62.20
2022-12-16T03:08:59.902Z,57.50
2022-12-16T03:11:49.739Z,58.83
2022-12-16T03:14:42.253Z,59.00
2022-12-16T03:17:29.514Z,60.28
2022-12-16T03:20:28.164Z,67.37
2022-12-16T03:23:19.926Z,62.47
2022-12-16T03:26:12.366Z,59.40
2022-12-16T03:29:05.971Z,63.70
2022-12-16T03:32:00.454Z,57.50
2022-12-16T03:34:53.180Z,59.30
2022-12-16T03:37:43.010Z,56.77
2022-12-16T03:40:32.043Z,60.47
2022-12-16T03:43:19.807Z,52.33
2022-12-16T03:46:08.285Z,58.90
2022-12-16T03:48:55.809Z,67.80
2022-12-16T03:51:43.015Z,52.50
2022-12-16T03:54:30.313Z,51.13
2022-12-16T03:57:17.760Z,64.50
2022-12-16T04:00:06.221Z,58.00
2022-12-16T04:02:53.738Z,54.97
2022-12-16T04:05:41.280Z,52.23
2022-12-16T04:08:28.461Z,53.53
2022-12-16T04:11:34.786Z,61.20
2022-12-16T04:14:40.710Z,59.37
2022-12-16T04:17:46.434Z,53.83
2022-12-16T04:20:56.224Z,62.30
2022-12-16T04:24:16.252Z,52.83
2022-12-16T04:27:21.887Z,54.08
2022-12-16T04:30:22.226Z,47.58
2022-12-16T04:33:33.781Z,58.78
2022-12-16T04:36:39.998Z,62.63
2022-12-16T04:39:45.900Z,58.20
2022-12-16T04:42:52.071Z,52.20
2022-12-16T04:45:58.017Z,50.95
2022-12-16T04:49:03.906Z,58.40
2022-12-16T04:52:09.738Z,49.25
2022-12-16T04:55:15.594Z,53.78
2022-12-16T04:58:22.306Z,56.65
2022-12-16T05:01:28.373Z,52.38
2022-12-16T05:04:33.994Z,55.13
2022-12-16T05:07:39.798Z,50.30
2022-12-16T05:10:45.838Z,57.58
2022-12-16T05:13:51.681Z,44.97
2022-12-16T05:16:57.735Z,60.55
2022-12-16T05:20:03.355Z,54.47
2022-12-16T05:23:09.176Z,57.70
2022-12-16T05:26:15.097Z,50.08
2022-12-16T05:29:21.046Z,51.38
2022-12-16T05:32:26.806Z,55.40
2022-12-16T05:35:32.703Z,56.80
2022-12-16T05:38:38.953Z,52.00
2022-12-16T05:41:44.796Z,49.72
2022-12-16T05:44:51.191Z,59.70
2022-12-16T05:47:58.068Z,53.22
2022-12-16T05:51:03.888Z,57.55
2022-12-16T05:54:09.502Z,54.33
2022-12-16T05:57:15.558Z,54.22
2022-12-16T06:00:21.636Z,49.42
2022-12-16T06:03:28.015Z,59.80
2022-12-16T06:06:33.762Z,58.40
2022-12-16T06:09:39.607Z,53.45
2022-12-16T06:12:45.740Z,56.23
2022-12-16T06:15:51.800Z,56.33
2022-12-16T06:18:57.689Z,50.60
2022-12-16T06:22:03.117Z,57.57
2022-12-16T06:25:08.810Z,57.47
2022-12-16T06:28:14.534Z,55.50
2022-12-16T06:31:20.621Z,50.10
2022-12-16T06:34:26.938Z,53.22
2022-12-16T06:37:32.591Z,50.40
2022-12-16T06:40:38.126Z,62.50
2022-12-16T06:43:43.887Z,54.80
2022-12-16T06:46:49.795Z,57.70
2022-12-16T06:49:55.308Z,61.15
2022-12-16T06:53:04.624Z,55.90
2022-12-16T06:56:10.456Z,64.37
2022-12-16T06:59:16.080Z,59.10
2022-12-16T07:02:22.183Z,49.47
2022-12-16T07:05:28.007Z,52.67
2022-12-16T07:08:33.755Z,57.37
2022-12-16T07:11:39.842Z,53.33
2022-12-16T07:14:45.741Z,57.67
2022-12-16T07:17:51.935Z,61.77
2022-12-16T07:20:57.525Z,59.27
2022-12-16T07:24:03.693Z,57.07
2022-12-16T07:27:09.476Z,53.43
2022-12-16T07:30:15.125Z,63.67
2022-12-16T07:33:21.043Z,63.90
2022-12-16T07:36:27.247Z,60.30
2022-12-16T07:39:32.814Z,58.47
2022-12-16T07:42:38.402Z,58.17
2022-12-16T07:45:45.418Z,63.90
2022-12-16T07:48:51.792Z,60.83
2022-12-16T07:51:58.537Z,60.17
2022-12-16T07:55:04.134Z,80.97
2022-12-16T07:58:10.696Z,57.37
2022-12-16T08:01:16.352Z,65.40
2022-12-16T08:04:32.783Z,58.60
2022-12-16T08:07:38.636Z,66.60
2022-12-16T08:10:44.455Z,62.47
2022-12-16T08:13:50.710Z,68.13
2022-12-16T08:16:56.763Z,58.13
2022-12-16T08:20:22.245Z,60.90
2022-12-16T08:23:28.360Z,57.90
2022-12-16T08:26:34.333Z,67.00
2022-12-16T08:29:44.895Z,65.60
2022-12-16T08:32:55.713Z,61.70
2022-12-16T08:36:04.213Z,66.27
2022-12-16T08:39:10.313Z,55.40
2022-12-16T08:42:16.223Z,66.43
2022-12-16T08:45:22.278Z,68.57
2022-12-16T08:48:28.173Z,57.93
2022-12-16T08:51:34.140Z,64.87
2022-12-16T08:54:40.183Z,66.03
2022-12-16T08:57:46.015Z,60.53
2022-12-16T09:00:51.766Z,61.67
2022-12-16T09:03:57.834Z,58.87
2022-12-16T09:07:04.768Z,69.63
2022-12-16T09:10:10.361Z,73.30
2022-12-16T09:13:27.083Z,67.23
2022-12-16T09:16:33.058Z,71.23
2022-12-16T09:19:38.911Z,61.40
2022-12-16T09:22:44.799Z,63.67
2022-12-16T09:25:50.604Z,61.73
2022-12-16T09:28:56.684Z,66.83
2022-12-16T09:32:02.516Z,65.37
2022-12-16T09:35:13.276Z,56.63
2022-12-16T09:38:19.313Z,68.40
2022-12-16T09:41:48.552Z,58.90
2022-12-16T09:45:10.093Z,65.67
2022-12-16T09:48:41.195Z,72.07
2022-12-16T09:51:47.681Z,58.13
2022-12-16T09:54:57.179Z,72.90
2022-12-16T09:58:03.772Z,67.63
2022-12-16T10:01:10.166Z,67.90
2022-12-16T10:04:16.873Z,63.23
2022-12-16T10:07:25.818Z,68.50
2022-12-16T10:10:50.742Z,71.30
2022-12-16T10:13:56.715Z,69.63
2022-12-16T10:17:30.917Z,67.93
2022-12-16T10:21:03.254Z,73.90
2022-12-16T10:24:51.219Z,70.63
2022-12-16T10:28:05.941Z,72.50
2022-12-16T10:31:11.727Z,77.83
2022-12-16T10:34:17.953Z,68.30
2022-12-16T10:37:24.377Z,65.63
2022-12-16T10:40:37.634Z,78.23
2022-12-16T10:44:05.496Z,70.57
2022-12-16T10:47:11.931Z,71.87
2022-12-16T10:50:18.338Z,64.07
2022-12-16T10:53:35.414Z,69.80
2022-12-16T10:56:59.561Z,62.83
2022-12-16T11:00:05.451Z,72.60
2022-12-16T11:03:11.884Z,73.93
2022-12-16T11:06:20.283Z,69.10
2022-12-16T11:09:49.016Z,63.67
2022-12-16T11:12:55.215Z,72.47
2022-12-16T11:16:02.073Z,71.93
2022-12-16T11:19:09.294Z,72.27
2022-12-16T11:22:30.518Z,65.07
2022-12-16T11:25:40.516Z,63.90
2022-12-16T11:28:46.093Z,63.97
2022-12-16T11:31:56.474Z,67.10
2022-12-16T11:35:10.757Z,69.97
2022-12-16T11:38:17.693Z,68.87
2022-12-16T11:41:24.954Z,72.13
2022-12-16T11:44:40.675Z,65.40
2022-12-16T11:47:58.391Z,70.30
2022-12-16T11:51:14.774Z,67.07
2022-12-16T11:54:23.285Z,72.50
2022-12-16T11:58:05.978Z,70.87
2022-12-16T12:01:21.014Z,68.90
2022-12-16T12:04:26.948Z,77.63
2022-12-16T12:08:02.218Z,77.47
2022-12-16T12:11:47.844Z,71.83
2022-12-16T12:15:21.142Z,67.13
2022-12-16T12:18:43.383Z,72.07
2022-12-16T12:21:49.323Z,71.50
2022-12-16T12:24:58.302Z,73.93
2022-12-16T12:28:07.491Z,68.40
2022-12-16T12:31:34.987Z,68.87
2022-12-16T12:35:31.466Z,74.27
2022-12-16T12:39:05.135Z,80.00
2022-12-16T12:42:50.037Z,81.60
2022-12-16T12:45:55.997Z,73.03
2022-12-16T12:49:30.640Z,75.30
2022-12-16T12:52:49.797Z,76.03
2022-12-16T12:56:22.865Z,76.47
2022-12-16T12:59:46.005Z,66.40
2022-12-16T13:03:01.103Z,85.30
2022-12-16T13:06:07.824Z,76.50
2022-12-16T13:09:16.520Z,71.90
2022-12-16T13:12:25.131Z,83.47
2022-12-16T13:15:37.756Z,81.80
2022-12-16T13:18:48.547Z,76.63
2022-12-16T13:21:57.375Z,87.60
2022-12-16T13:25:09.523Z,73.20
2022-12-16T13:28:15.856Z,70.20
2022-12-16T13:31:25.939Z,78.80
2022-12-16T13:34:34.490Z,74.23
2022-12-16T13:37:43.911Z,78.20
2022-12-16T13:41:07.973Z,74.33
2022-12-16T13:44:14.899Z,91.30
2022-12-16T13:47:20.736Z,80.03
2022-12-16T13:50:55.853Z,76.80
2022-12-16T13:54:11.118Z,70.57
2022-12-16T13:57:25.289Z,79.97
2022-12-16T14:01:06.265Z,81.63
2022-12-16T14:07:44.623Z,73.60
2022-12-16T14:11:05.894Z,86.53
2022-12-16T14:14:43.191Z,80.10
2022-12-16T14:18:14.443Z,73.37
2022-12-16T14:21:40.127Z,75.03
2022-12-16T14:24:49.048Z,77.67
2022-12-16T14:28:03.382Z,75.67
2022-12-16T14:34:58.915Z,79.20
2022-12-16T14:38:04.800Z,69.57
2022-12-16T14:41:20.998Z,80.33
2022-12-16T14:44:53.538Z,70.73
2022-12-16T14:48:10.585Z,73.40
2022-12-16T14:51:35.014Z,76.23
2022-12-16T14:55:29.182Z,85.50
2022-12-16T14:58:38.002Z,79.83
2022-12-16T15:01:45.305Z,71.00
2022-12-16T15:04:51.240Z,76.40
2022-12-16T15:07:57.939Z,76.57
2022-12-16T15:11:04.331Z,81.23
2022-12-16T15:14:14.756Z,74.60
2022-12-16T15:17:21.313Z,77.33
2022-12-16T15:20:38.030Z,79.33
2022-12-16T15:23:48.777Z,71.13
2022-12-16T15:26:54.973Z,82.17
2022-12-16T15:30:01.522Z,75.17
2022-12-16T15:33:21.015Z,73.93
2022-12-16T15:36:35.226Z,73.43
2022-12-16T15:39:42.920Z,81.07
2022-12-16T15:42:51.355Z,87.07
2022-12-16T15:45:57.213Z,85.90
2022-12-16T15:49:07.930Z,71.17
2022-12-16T15:52:13.574Z,78.97
2022-12-16T15:55:19.645Z,78.30
2022-12-16T15:58:34.559Z,83.67
2022-12-16T16:01:45.929Z,82.37
2022-12-16T16:04:52.330Z,84.70
2022-12-16T16:08:02.014Z,79.37
2022-12-16T16:11:09.720Z,95.73
2022-12-16T16:14:15.715Z,85.10
2022-12-16T16:17:22.062Z,83.43
2022-12-16T16:20:33.529Z,72.53
2022-12-16T16:23:39.413Z,74.83
2022-12-16T16:26:46.889Z,76.47
2022-12-16T16:29:52.866Z,81.03
2022-12-16T16:32:58.502Z,77.00
2022-12-16T16:36:04.358Z,72.83
2022-12-16T16:39:10.159Z,72.97
2022-12-16T16:42:16.018Z,79.33
2022-12-16T16:45:22.111Z,77.47
2022-12-16T16:48:36.035Z,89.63
2022-12-16T16:51:41.511Z,85.77
2022-12-16T16:54:47.441Z,97.17
2022-12-16T16:57:55.546Z,81.33
2022-12-16T17:01:22.599Z,92.60
2022-12-16T17:04:28.571Z,80.73
2022-12-16T17:07:34.430Z,78.63
2022-12-16T17:10:40.050Z,90.13
2022-12-16T17:13:46.057Z,83.90
2022-12-16T17:16:52.143Z,100.87
2022-12-16T17:19:58.030Z,90.03
2022-12-16T17:23:03.628Z,77.77
2022-12-16T17:26:09.626Z,88.90
2022-12-16T17:29:16.935Z,77.83
2022-12-16T17:32:23.199Z,80.47
2022-12-16T17:35:30.471Z,90.63
2022-12-16T17:38:36.033Z,86.77
2022-12-16T17:41:41.931Z,84.03
2022-12-16T17:44:47.674Z,89.33
2022-12-16T17:47:53.432Z,106.67
2022-12-16T17:50:59.378Z,97.60
2022-12-16T17:54:14.552Z,92.97
2022-12-16T17:57:23.436Z,100.10
2022-12-16T18:00:29.545Z,89.20
2022-12-16T18:03:35.590Z,103.80
2022-12-16T18:06:41.567Z,79.07
2022-12-16T18:09:47.265Z,80.93
2022-12-16T18:12:53.301Z,81.10
2022-12-16T18:15:59.356Z,84.70
2022-12-16T18:19:08.767Z,81.17
2022-12-16T18:22:14.883Z,89.03
2022-12-16T18:25:20.751Z,87.43
2022-12-16T18:28:26.323Z,86.00
2022-12-16T18:31:32.543Z,107.37
2022-12-16T18:34:38.937Z,90.93
2022-12-16T18:37:44.956Z,86.47
2022-12-16T18:40:50.809Z,83.63
2022-12-16T18:43:57.322Z,95.87
2022-12-16T18:47:05.359Z,101.00
2022-12-16T18:50:10.919Z,103.87
2022-12-16T18:53:21.238Z,107.97
2022-12-16T18:56:27.816Z,105.43
2022-12-16T18:59:33.602Z,119.13
2022-12-16T19:02:39.328Z,113.70
2022-12-16T19:05:45.550Z,104.90
2022-12-16T19:08:51.140Z,106.97
2022-12-16T19:11:56.963Z,126.93
2022-12-16T19:15:02.568Z,97.77
2022-12-16T19:18:08.446Z,96.77
2022-12-16T19:21:16.501Z,93.23
2022-12-16T19:24:22.423Z,98.33
2022-12-16T19:27:28.552Z,82.73
2022-12-16T19:30:34.224Z,75.83
2022-12-16T19:33:39.656Z,71.13
2022-12-16T19:40:11.273Z,90.90
2022-12-16T19:43:16.755Z,74.77
2022-12-16T19:46:22.743Z,80.83
2022-12-16T19:49:28.372Z,78.23
2022-12-16T19:52:34.379Z,82.37
2022-12-16T19:55:40.367Z,86.10
2022-12-16T19:58:46.354Z,84.47
2022-12-16T20:01:52.198Z,81.40
2022-12-16T20:05:01.359Z,83.80
2022-12-16T20:08:07.275Z,83.00
2022-12-16T20:11:13.254Z,98.13
2022-12-16T20:14:18.867Z,89.60
2022-12-16T20:17:25.117Z,100.07
2022-12-16T20:20:30.822Z,77.67
2022-12-16T20:23:36.644Z,87.10
2022-12-16T20:26:42.665Z,93.97
2022-12-16T20:29:48.587Z,97.73
2022-12-16T20:32:54.826Z,103.10
2022-12-16T20:36:12.481Z,94.37
2022-12-16T20:39:18.298Z,87.47
2022-12-16T20:42:24.142Z,87.63
2022-12-16T20:45:30.515Z,105.90
2022-12-16T20:48:36.502Z,105.80
2022-12-16T20:51:42.375Z,86.60
2022-12-16T20:54:55.998Z,83.80
2022-12-16T20:58:02.056Z,86.67
2022-12-16T21:01:14.480Z,86.97
2022-12-16T21:04:20.078Z,89.90
2022-12-16T21:07:28.652Z,101.67
2022-12-16T21:10:34.173Z,88.27
2022-12-16T21:13:39.766Z,86.90
2022-12-16T21:16:45.381Z,98.70
2022-12-16T21:19:51.797Z,101.17
2022-12-16T21:22:57.391Z,85.57
2022-12-16T21:26:03.108Z,91.93
2022-12-16T21:29:09.945Z,107.23
2022-12-16T21:32:15.640Z,103.50
2022-12-16T21:35:21.559Z,98.43
2022-12-16T21:38:28.884Z,93.77
2022-12-16T21:41:34.669Z,99.50
2022-12-16T21:44:40.314Z,99.53
2022-12-16T21:47:45.854Z,105.90
2022-12-16T21:50:51.805Z,122.10
2022-12-16T21:53:58.189Z,102.00
2022-12-16T21:57:05.610Z,106.07
2022-12-16T22:00:11.585Z,95.13
2022-12-16T22:03:17.449Z,112.43
2022-12-16T22:06:23.487Z,109.97
2022-12-16T22:09:29.753Z,101.37
2022-12-16T22:12:35.784Z,125.40
2022-12-16T22:15:41.317Z,106.90
2022-12-16T22:18:46.982Z,120.70
2022-12-16T22:21:52.702Z,106.67
2022-12-16T22:24:59.301Z,96.03
2022-12-16T22:28:05.584Z,106.23
2022-12-16T22:31:15.764Z,108.77
2022-12-16T22:34:22.036Z,102.23
2022-12-16T22:37:28.018Z,104.00
2022-12-16T22:40:34.025Z,100.67
2022-12-16T22:43:50.284Z,107.23
2022-12-16T22:46:56.221Z,108.50
2022-12-16T22:50:06.675Z,120.00
2022-12-16T22:53:12.626Z,126.70
2022-12-16T22:56:18.235Z,104.90
2022-12-16T22:59:23.973Z,117.33
2022-12-16T23:02:30.385Z,128.07
2022-12-16T23:05:40.080Z,110.87
2022-12-16T23:08:45.709Z,119.50
2022-12-16T23:11:56.660Z,113.60
2022-12-16T23:15:02.196Z,124.40
2022-12-16T23:18:07.703Z,100.77
2022-12-16T23:21:13.469Z,118.53
2022-12-16T23:24:19.282Z,99.33
2022-12-16T23:27:25.111Z,100.13
2022-12-16T23:30:31.031Z,98.83
2022-12-16T23:33:37.086Z,86.33
2022-12-16T23:36:43.361Z,102.00
2022-12-16T23:39:48.906Z,106.13
2022-12-16T23:42:54.851Z,96.07
2022-12-16T23:46:03.188Z,86.07
2022-12-16T23:49:09.423Z,101.27
2022-12-16T23:52:15.213Z,121.27
2022-12-16T23:55:20.784Z,103.17
2022-12-16T23:58:27.749Z,116.40
